createdAt,value
2022-08-07T00:01:44.040Z,22.87
2022-08-07T00:04:09.706Z,22.78
2022-08-07T00:06:40.966Z,22.76
2022-08-07T00:09:21.253Z,22.83
2022-08-07T00:11:55.428Z,22.75
2022-08-07T00:14:25.210Z,22.71
2022-08-07T00:16:52.758Z,22.60
2022-08-07T00:19:21.615Z,22.61
2022-08-07T00:21:55.970Z,22.69
2022-08-07T00:24:28.762Z,22.57
2022-08-07T00:27:07.243Z,22.62
2022-08-07T00:29:37.034Z,22.65
2022-08-07T00:32:06.920Z,22.65
2022-08-07T00:34:35.531Z,22.53
2022-08-07T00:37:04.948Z,22.54
2022-08-07T00:39:33.206Z,22.56
2022-08-07T00:42:04.881Z,22.58
2022-08-07T00:44:33.256Z,22.64
2022-08-07T00:47:01.641Z,22.49
2022-08-07T00:50:20.040Z,22.50
2022-08-07T00:52:17.639Z,22.50
2022-08-07T00:54:53.566Z,22.48
2022-08-07T00:57:25.946Z,22.52
2022-08-07T00:59:53.594Z,22.42
2022-08-07T01:02:28.392Z,22.50
2022-08-07T01:04:58.680Z,22.52
2022-08-07T01:07:28.023Z,22.38
2022-08-07T01:10:06.537Z,22.44
2022-08-07T01:12:53.078Z,22.43
2022-08-07T01:15:20.527Z,22.37
2022-08-07T01:17:47.549Z,22.37
2022-08-07T01:20:17.289Z,22.39
2022-08-07T01:22:54.104Z,22.41
2022-08-07T01:25:54.154Z,22.26
2022-08-07T01:28:19.341Z,22.36
2022-08-07T01:30:47.200Z,22.29
2022-08-07T01:33:18.359Z,22.30
2022-08-07T01:35:54.071Z,22.28
2022-08-07T01:38:25.643Z,22.36
2022-08-07T01:40:55.466Z,22.37
2022-08-07T01:43:26.063Z,22.29
2022-08-07T01:45:54.344Z,22.30
2022-08-07T01:48:30.198Z,22.19
2022-08-07T01:51:24.606Z,22.07
2022-08-07T01:54:08.952Z,22.19
2022-08-07T01:56:59.215Z,22.10
2022-08-07T01:59:30.968Z,22.21
2022-08-07T02:02:06.312Z,22.20
2022-08-07T02:04:56.253Z,22.23
2022-08-07T02:07:44.754Z,22.20
2022-08-07T02:10:18.540Z,22.07
2022-08-07T02:12:50.199Z,22.14
2022-08-07T02:15:23.234Z,22.13
2022-08-07T02:17:55.013Z,22.27
2022-08-07T02:20:24.742Z,22.29
2022-08-07T02:23:02.637Z,22.22
2022-08-07T02:26:31.115Z,22.16
2022-08-07T02:28:24.681Z,22.27
2022-08-07T02:30:55.390Z,22.28
2022-08-07T02:33:41.949Z,22.27
2022-08-07T02:36:29.456Z,22.31
2022-08-07T02:39:02.729Z,22.25
2022-08-07T02:41:47.352Z,22.29
2022-08-07T02:44:26.779Z,22.19
2022-08-07T02:46:58.305Z,22.15
2022-08-07T02:49:57.876Z,22.22
2022-08-07T02:52:32.097Z,22.26
2022-08-07T02:55:04.436Z,22.13
2022-08-07T02:57:35.197Z,22.16
2022-08-07T03:00:11.106Z,22.27
2022-08-07T03:02:54.561Z,22.15
2022-08-07T03:05:24.585Z,22.20
2022-08-07T03:08:07.371Z,22.19
2022-08-07T03:10:40.673Z,22.14
2022-08-07T03:13:19.355Z,22.06
2022-08-07T03:15:56.510Z,22.18
2022-08-07T03:18:34.602Z,22.16
2022-08-07T03:21:08.837Z,22.14
2022-08-07T03:24:17.970Z,22.19
2022-08-07T03:26:32.513Z,21.97
2022-08-07T03:29:02.425Z,21.97
2022-08-07T03:31:42.422Z,22.01
2022-08-07T03:34:18.739Z,21.98
2022-08-07T03:36:53.046Z,22.04
2022-08-07T03:40:00.089Z,21.90
2022-08-07T03:42:10.339Z,21.89
2022-08-07T03:44:38.823Z,21.99
2022-08-07T03:47:13.144Z,21.90
2022-08-07T03:49:48.022Z,21.91
2022-08-07T03:52:26.614Z,21.91
2022-08-07T03:55:06.048Z,21.91
2022-08-07T03:58:34.773Z,21.91
2022-08-07T04:00:29.272Z,21.99
2022-08-07T04:03:04.282Z,21.89
2022-08-07T04:05:41.072Z,21.96
2022-08-07T04:08:16.191Z,22.01
2022-08-07T04:10:54.353Z,22.01
2022-08-07T04:14:09.369Z,21.99
2022-08-07T04:16:31.093Z,21.98
2022-08-07T04:19:12.257Z,21.97
2022-08-07T04:21:59.538Z,21.99
2022-08-07T04:24:33.728Z,21.93
2022-08-07T04:27:03.110Z,22.03
2022-08-07T04:29:57.161Z,22.07
2022-08-07T04:32:18.511Z,22.08
2022-08-07T04:35:03.938Z,22.01
2022-08-07T04:37:52.909Z,21.95
2022-08-07T04:40:21.103Z,21.93
2022-08-07T04:42:52.352Z,21.96
2022-08-07T04:45:44.470Z,21.92
2022-08-07T04:48:17.066Z,22.01
2022-08-07T04:51:12.667Z,22.05
2022-08-07T04:54:01.600Z,22.18
2022-08-07T04:58:10.968Z,22.22
2022-08-07T05:00:13.130Z,22.29
2022-08-07T05:03:00.687Z,22.16
2022-08-07T05:05:53.057Z,22.32
2022-08-07T05:09:00.005Z,22.37
2022-08-07T05:11:27.873Z,22.46
2022-08-07T05:14:56.445Z,22.51
2022-08-07T05:17:52.344Z,22.59
2022-08-07T05:20:23.890Z,22.72
2022-08-07T05:22:54.936Z,22.73
2022-08-07T05:25:26.114Z,22.68
2022-08-07T05:28:20.221Z,22.81
2022-08-07T05:30:52.115Z,22.59
2022-08-07T05:33:20.907Z,22.66
2022-08-07T05:35:51.613Z,22.86
2022-08-07T05:39:00.420Z,23.00
2022-08-07T05:41:14.457Z,23.01
2022-08-07T05:44:08.786Z,23.21
2022-08-07T05:46:36.364Z,23.38
2022-08-07T05:49:12.126Z,23.47
2022-08-07T05:51:42.787Z,23.30
2022-08-07T05:54:29.815Z,23.23
2022-08-07T05:56:58.886Z,23.40
2022-08-07T05:59:27.977Z,23.49
2022-08-07T06:01:58.327Z,23.57
2022-08-07T06:04:30.296Z,23.42
2022-08-07T06:07:03.929Z,23.60
2022-08-07T06:09:44.872Z,23.53
2022-08-07T06:12:20.910Z,23.46
2022-08-07T06:14:49.556Z,23.75
2022-08-07T06:17:19.421Z,23.80
2022-08-07T06:20:03.482Z,23.83
2022-08-07T06:22:36.895Z,23.73
2022-08-07T06:25:06.707Z,23.77
2022-08-07T06:27:44.037Z,23.84
2022-08-07T06:30:35.755Z,24.00
2022-08-07T06:33:05.728Z,24.16
2022-08-07T06:35:47.610Z,24.14
2022-08-07T06:38:19.926Z,24.29
2022-08-07T06:40:51.269Z,24.26
2022-08-07T06:43:23.589Z,24.19
2022-08-07T06:45:50.901Z,24.15
2022-08-07T06:48:25.034Z,24.09
2022-08-07T06:50:54.881Z,24.05
2022-08-07T06:55:30.084Z,23.99
2022-08-07T06:56:15.111Z,24.05
2022-08-07T07:00:14.716Z,24.02
2022-08-07T07:01:44.042Z,24.00
2022-08-07T07:04:32.757Z,24.03
2022-08-07T07:07:02.351Z,24.06
2022-08-07T07:09:38.302Z,23.96
2022-08-07T07:12:08.414Z,23.97
2022-08-07T07:14:58.309Z,24.19
2022-08-07T07:17:38.870Z,24.35
2022-08-07T07:20:12.001Z,24.43
2022-08-07T07:24:05.957Z,24.41
2022-08-07T07:26:35.471Z,24.50
2022-08-07T07:28:29.625Z,24.55
2022-08-07T07:31:44.694Z,24.52
2022-08-07T07:34:19.929Z,24.45
2022-08-07T07:36:52.654Z,24.61
2022-08-07T07:39:25.698Z,24.49
2022-08-07T07:42:13.300Z,24.56
2022-08-07T07:44:44.633Z,25.07
2022-08-07T07:47:23.706Z,25.33
2022-08-07T07:50:34.080Z,25.62
2022-08-07T07:52:54.994Z,25.64
2022-08-07T07:55:23.066Z,25.95
2022-08-07T07:57:53.996Z,26.05
2022-08-07T08:00:29.417Z,25.89
2022-08-07T08:03:05.454Z,25.60
2022-08-07T08:05:54.253Z,25.65
2022-08-07T08:08:34.654Z,25.59
2022-08-07T08:11:09.245Z,25.63
2022-08-07T08:13:53.951Z,25.86
2022-08-07T08:16:26.370Z,26.26
2022-08-07T08:19:00.492Z,26.93
2022-08-07T08:22:07.858Z,27.30
2022-08-07T08:25:18.326Z,27.50
2022-08-07T08:27:57.114Z,27.76
2022-08-07T08:30:29.753Z,27.42
2022-08-07T08:33:03.017Z,27.97
2022-08-07T08:35:39.318Z,28.12
2022-08-07T08:38:18.031Z,28.11
2022-08-07T08:40:54.952Z,27.93
2022-08-07T08:43:42.994Z,28.59
2022-08-07T08:46:59.147Z,28.67
2022-08-07T08:49:46.116Z,29.64
2022-08-07T08:52:22.451Z,29.83
2022-08-07T08:54:58.303Z,29.87
2022-08-07T08:58:08.681Z,30.32
2022-08-07T09:00:48.633Z,30.57
2022-08-07T09:04:04.096Z,31.00
2022-08-07T09:06:56.386Z,30.91
2022-08-07T09:09:56.757Z,32.05
2022-08-07T09:12:42.405Z,32.11
2022-08-07T09:16:25.604Z,32.56
2022-08-07T09:18:33.578Z,32.84
2022-08-07T09:21:06.284Z,33.28
2022-08-07T09:24:32.115Z,32.84
2022-08-07T09:27:09.001Z,32.39
2022-08-07T09:30:04.534Z,31.29
2022-08-07T09:32:43.221Z,30.64
2022-08-07T09:36:03.454Z,29.82
2022-08-07T09:38:19.968Z,29.66
2022-08-07T09:41:00.357Z,29.45
2022-08-07T09:44:06.915Z,29.59
2022-08-07T09:47:55.513Z,29.83
2022-08-07T09:50:21.297Z,30.40
2022-08-07T09:52:53.728Z,30.57
2022-08-07T09:56:03.959Z,30.26
2022-08-07T09:58:33.172Z,30.47
2022-08-07T10:01:00.755Z,30.12
2022-08-07T10:04:05.496Z,30.41
2022-08-07T10:06:38.042Z,30.01
2022-08-07T10:09:10.944Z,29.59
2022-08-07T10:12:01.940Z,29.47
2022-08-07T10:15:05.373Z,29.96
2022-08-07T10:18:03.075Z,30.07
2022-08-07T10:20:39.450Z,30.27
2022-08-07T10:24:04.972Z,30.46
2022-08-07T10:26:53.084Z,30.87
2022-08-07T10:29:58.621Z,31.45
2022-08-07T10:32:53.124Z,30.75
2022-08-07T10:35:55.567Z,30.62
2022-08-07T10:38:48.038Z,31.39
2022-08-07T10:41:51.839Z,30.86
2022-08-07T10:44:45.669Z,31.23
2022-08-07T10:47:27.151Z,31.32
2022-08-07T10:50:19.161Z,31.62
2022-08-07T10:53:13.136Z,31.96
2022-08-07T10:56:02.240Z,32.59
2022-08-07T10:59:00.110Z,33.15
2022-08-07T11:01:51.988Z,33.47
2022-08-07T11:04:45.600Z,33.62
2022-08-07T11:07:58.582Z,33.76
2022-08-07T11:10:49.974Z,34.43
2022-08-07T11:14:42.618Z,34.13
2022-08-07T11:16:29.834Z,33.62
2022-08-07T11:19:21.729Z,33.36
2022-08-07T11:22:27.354Z,33.24
2022-08-07T11:25:30.600Z,32.69
2022-08-07T11:28:19.417Z,32.65
2022-08-07T11:31:08.728Z,33.31
2022-08-07T11:33:58.442Z,34.08
2022-08-07T11:36:50.105Z,34.23
2022-08-07T11:39:59.535Z,34.20
2022-08-07T11:42:52.089Z,33.54
2022-08-07T11:45:49.828Z,33.18
2022-08-07T11:49:50.777Z,32.16
2022-08-07T11:52:04.164Z,32.68
2022-08-07T11:54:36.206Z,32.62
2022-08-07T11:57:52.389Z,32.97
2022-08-07T12:00:40.657Z,33.24
2022-08-07T12:03:44.735Z,33.50
2022-08-07T12:06:39.808Z,33.59
2022-08-07T12:09:35.255Z,34.30
2022-08-07T12:12:11.165Z,34.49
2022-08-07T12:15:08.193Z,34.36
2022-08-07T12:18:08.036Z,33.94
2022-08-07T12:21:15.034Z,33.89
2022-08-07T12:24:07.707Z,33.88
2022-08-07T12:26:53.516Z,34.04
2022-08-07T12:29:37.812Z,34.58
2022-08-07T12:32:23.406Z,35.32
2022-08-07T12:34:55.926Z,36.65
2022-08-07T12:37:28.511Z,36.73
2022-08-07T12:40:36.164Z,37.80
2022-08-07T12:43:09.346Z,37.62
2022-08-07T12:45:55.302Z,36.55
2022-08-07T12:48:41.462Z,35.83
2022-08-07T12:51:24.065Z,35.27
2022-08-07T12:54:41.367Z,35.21
2022-08-07T12:57:10.993Z,35.10
2022-08-07T12:59:55.467Z,35.67
2022-08-07T13:02:49.435Z,34.61
2022-08-07T13:06:02.787Z,34.88
2022-08-07T13:08:41.368Z,35.36
2022-08-07T13:12:02.099Z,36.27
2022-08-07T13:14:38.494Z,37.53
2022-08-07T13:17:39.696Z,36.89
2022-08-07T13:20:37.433Z,35.68
2022-08-07T13:24:02.118Z,35.30
2022-08-07T13:26:05.534Z,35.25
2022-08-07T13:28:44.174Z,35.13
2022-08-07T13:31:55.200Z,34.83
2022-08-07T13:34:44.678Z,35.19
2022-08-07T13:37:30.388Z,36.66
2022-08-07T13:40:42.310Z,34.97
2022-08-07T13:43:11.869Z,36.01
2022-08-07T13:46:11.712Z,36.79
2022-08-07T13:48:34.588Z,37.32
2022-08-07T13:51:27.590Z,38.00
2022-08-07T13:54:00.579Z,37.55
2022-08-07T13:56:35.913Z,37.26
2022-08-07T13:59:27.163Z,38.13
2022-08-07T14:02:08.644Z,37.15
2022-08-07T14:05:04.483Z,38.02
2022-08-07T14:07:34.061Z,37.87
2022-08-07T14:10:21.735Z,37.72
2022-08-07T14:12:58.679Z,38.01
2022-08-07T14:15:41.959Z,38.46
2022-08-07T14:18:37.093Z,38.18
2022-08-07T14:21:20.838Z,38.02
2022-08-07T14:24:06.445Z,38.62
2022-08-07T14:26:50.470Z,38.72
2022-08-07T14:30:02.829Z,38.58
2022-08-07T14:32:13.046Z,39.34
2022-08-07T14:34:45.888Z,39.17
2022-08-07T14:37:16.384Z,38.10
2022-08-07T14:40:17.945Z,37.85
2022-08-07T14:43:55.791Z,38.68
2022-08-07T14:45:46.766Z,38.20
2022-08-07T14:48:20.147Z,36.53
2022-08-07T14:50:53.291Z,35.69
2022-08-07T14:54:03.573Z,35.02
2022-08-07T14:56:14.076Z,33.67
2022-08-07T14:58:45.369Z,34.74
2022-08-07T15:01:22.475Z,35.46
2022-08-07T15:03:52.438Z,36.68
2022-08-07T15:06:25.540Z,36.64
2022-08-07T15:08:54.905Z,37.09
2022-08-07T15:11:53.863Z,36.65
2022-08-07T15:14:30.360Z,37.60
2022-08-07T15:17:01.152Z,37.54
2022-08-07T15:20:30.799Z,37.50
2022-08-07T15:25:19.615Z,36.49
2022-08-07T15:31:04.722Z,36.26
2022-08-07T15:33:33.902Z,35.46
2022-08-07T15:36:07.809Z,36.06
2022-08-07T15:38:58.753Z,35.98
2022-08-07T15:42:46.597Z,36.67
2022-08-07T15:44:18.896Z,36.26
2022-08-07T15:46:52.715Z,35.88
2022-08-07T15:50:05.154Z,36.20
2022-08-07T15:52:30.397Z,35.19
2022-08-07T15:55:02.956Z,34.64
2022-08-07T15:57:47.644Z,34.24
2022-08-07T16:00:33.437Z,34.47
2022-08-07T16:03:21.436Z,33.47
2022-08-07T16:05:51.071Z,33.17
2022-08-07T16:08:31.348Z,32.91
2022-08-07T16:11:26.522Z,33.12
2022-08-07T16:14:09.405Z,32.88
2022-08-07T16:18:01.274Z,32.45
2022-08-07T16:20:56.833Z,31.80
2022-08-07T16:23:53.737Z,31.90
2022-08-07T16:26:30.736Z,31.89
2022-08-07T16:30:10.183Z,31.92
2022-08-07T16:32:34.421Z,31.74
2022-08-07T16:35:58.527Z,31.62
2022-08-07T16:39:06.108Z,31.69
2022-08-07T16:41:54.422Z,31.62
2022-08-07T16:45:14.025Z,31.88
2022-08-07T16:47:51.450Z,31.51
2022-08-07T16:51:07.372Z,31.76
2022-08-07T16:54:01.129Z,31.79
2022-08-07T16:57:01.164Z,31.55
2022-08-07T16:59:46.909Z,31.78
2022-08-07T17:03:04.908Z,31.30
2022-08-07T17:06:19.186Z,31.09
2022-08-07T17:09:08.641Z,30.93
2022-08-07T17:12:04.814Z,30.83
2022-08-07T17:14:41.540Z,30.88
2022-08-07T17:17:46.001Z,30.55
2022-08-07T17:20:30.076Z,30.27
2022-08-07T17:23:22.990Z,30.08
2022-08-07T17:26:23.253Z,30.09
2022-08-07T17:29:06.378Z,29.84
2022-08-07T17:32:02.474Z,29.72
2022-08-07T17:35:32.781Z,29.68
2022-08-07T17:38:05.692Z,29.60
2022-08-07T17:40:44.265Z,29.54
2022-08-07T17:44:00.903Z,29.57
2022-08-07T17:46:40.559Z,29.30
2022-08-07T17:49:26.053Z,29.17
2022-08-07T17:52:05.206Z,29.14
2022-08-07T17:54:53.741Z,29.04
2022-08-07T17:57:58.652Z,28.84
2022-08-07T18:00:34.402Z,28.86
2022-08-07T18:03:25.369Z,28.83
2022-08-07T18:06:02.090Z,28.78
2022-08-07T18:09:00.705Z,28.69
2022-08-07T18:12:19.375Z,28.61
2022-08-07T18:14:50.124Z,28.55
2022-08-07T18:18:47.500Z,28.55
2022-08-07T18:21:09.769Z,28.52
2022-08-07T18:23:43.080Z,28.56
2022-08-07T18:26:19.114Z,28.57
2022-08-07T18:30:06.129Z,28.56
2022-08-07T18:32:16.770Z,28.59
2022-08-07T18:35:02.568Z,28.55
2022-08-07T18:38:54.814Z,28.52
2022-08-07T18:41:07.902Z,28.49
2022-08-07T18:44:12.401Z,28.37
2022-08-07T18:47:05.463Z,28.40
2022-08-07T18:50:31.270Z,28.39
2022-08-07T18:53:36.949Z,28.30
2022-08-07T18:56:30.660Z,28.27
2022-08-07T18:59:47.134Z,28.07
2022-08-07T19:02:32.280Z,28.04
2022-08-07T19:05:27.099Z,27.95
2022-08-07T19:09:09.275Z,27.66
2022-08-07T19:12:08.600Z,27.49
2022-08-07T19:14:51.129Z,27.33
2022-08-07T19:17:58.854Z,27.30
2022-08-07T19:20:29.892Z,27.22
2022-08-07T19:23:19.414Z,27.10
2022-08-07T19:26:25.068Z,26.98
2022-08-07T19:31:05.119Z,26.87
2022-08-07T19:32:07.731Z,26.79
2022-08-07T19:34:40.990Z,26.74
2022-08-07T19:37:18.105Z,26.64
2022-08-07T19:39:57.644Z,26.58
2022-08-07T19:42:40.562Z,26.56
2022-08-07T19:46:05.750Z,26.56
2022-08-07T19:48:18.463Z,26.36
2022-08-07T19:50:53.225Z,26.39
2022-08-07T19:54:44.664Z,26.27
2022-08-07T19:58:01.509Z,26.11
2022-08-07T19:59:02.697Z,26.13
2022-08-07T20:01:52.658Z,26.00
2022-08-07T20:04:30.933Z,25.95
2022-08-07T20:06:59.097Z,25.92
2022-08-07T20:10:33.488Z,25.83
2022-08-07T20:12:32.209Z,25.75
2022-08-07T20:15:09.564Z,25.70
2022-08-07T20:17:44.516Z,25.59
2022-08-07T20:20:30.170Z,25.49
2022-08-07T20:23:23.131Z,25.39
2022-08-07T20:25:52.902Z,25.21
2022-08-07T20:28:21.051Z,25.13
2022-08-07T20:30:59.218Z,25.02
2022-08-07T20:33:37.595Z,24.95
2022-08-07T20:36:08.315Z,24.92
2022-08-07T20:39:00.038Z,24.82
2022-08-07T20:41:28.594Z,24.72
2022-08-07T20:44:02.836Z,24.59
2022-08-07T20:46:37.128Z,24.60
2022-08-07T20:49:59.193Z,24.67
2022-08-07T20:52:01.444Z,24.58
2022-08-07T20:54:30.073Z,24.46
2022-08-07T20:57:08.373Z,24.36
2022-08-07T21:00:07.543Z,24.28
2022-08-07T21:02:54.217Z,24.30
2022-08-07T21:05:51.342Z,24.18
2022-08-07T21:08:16.559Z,24.07
2022-08-07T21:10:50.829Z,23.94
2022-08-07T21:13:24.760Z,23.87
2022-08-07T21:16:11.280Z,23.88
2022-08-07T21:18:40.539Z,23.88
2022-08-07T21:21:09.469Z,23.84
2022-08-07T21:23:50.260Z,23.79
2022-08-07T21:27:16.398Z,23.65
2022-08-07T21:29:53.010Z,23.56
2022-08-07T21:32:47.800Z,23.50
2022-08-07T21:35:17.531Z,23.45
2022-08-07T21:38:18.902Z,23.48
2022-08-07T21:41:09.599Z,23.46
2022-08-07T21:44:03.742Z,23.50
2022-08-07T21:47:12.283Z,23.42
2022-08-07T21:50:03.638Z,23.41
2022-08-07T21:52:42.459Z,23.32
2022-08-07T21:55:28.309Z,23.29
2022-08-07T21:58:06.791Z,23.21
2022-08-07T22:00:35.557Z,22.95
2022-08-07T22:03:30.710Z,23.00
2022-08-07T22:06:07.644Z,23.08
2022-08-07T22:09:02.856Z,23.13
2022-08-07T22:12:05.325Z,23.13
2022-08-07T22:14:36.236Z,23.00
2022-08-07T22:17:05.036Z,23.16
2022-08-07T22:20:23.646Z,23.05
2022-08-07T22:23:01.709Z,22.95
2022-08-07T22:25:37.050Z,22.87
2022-08-07T22:28:31.622Z,22.86
2022-08-07T22:31:06.735Z,22.79
2022-08-07T22:33:55.949Z,22.67
2022-08-07T22:36:38.491Z,22.57
2022-08-07T22:39:16.998Z,22.34
2022-08-07T22:42:04.023Z,22.33
2022-08-07T22:44:41.497Z,22.30
2022-08-07T22:47:45.594Z,22.25
2022-08-07T22:50:36.320Z,22.20
2022-08-07T22:54:07.422Z,22.21
2022-08-07T22:56:30.517Z,22.19
2022-08-07T22:59:20.220Z,22.18
2022-08-07T23:02:00.439Z,22.11
2022-08-07T23:04:57.828Z,21.91
2022-08-07T23:08:24.443Z,21.80
2022-08-07T23:11:13.324Z,21.66
2022-08-07T23:14:16.010Z,21.63
2022-08-07T23:17:27.443Z,21.58
2022-08-07T23:20:52.346Z,21.53
2022-08-07T23:24:06.043Z,21.39
2022-08-07T23:26:26.201Z,21.38
2022-08-07T23:29:43.184Z,21.36
2022-08-07T23:34:20.070Z,21.35
2022-08-07T23:35:44.801Z,21.30
2022-08-07T23:38:43.314Z,21.33
2022-08-07T23:41:33.317Z,21.35
2022-08-07T23:44:06.436Z,21.32
2022-08-07T23:47:01.278Z,21.39
2022-08-07T23:49:57.026Z,21.33
2022-08-07T23:52:58.788Z,21.27
2022-08-07T23:55:53.020Z,21.25
2022-08-07T23:58:34.887Z,21.21
